sensor_id;sensor_type;location;lat;lon;timestamp;pressure;altitude;pressure_sealevel;temperature;humidity
54022;BME280;39936;51.058;17.220;2023-03-03T00:07:15;102244.95;;;-1.04;100.00
54022;BME280;39936;51.058;17.220;2023-03-03T00:11:05;102244.68;;;-1.02;100.00
54022;BME280;39936;51.058;17.220;2023-03-03T00:14:29;102243.19;;;-0.97;100.00
54022;BME280;39936;51.058;17.220;2023-03-03T00:22:36;102252.05;;;-0.85;100.00
54022;BME280;39936;51.058;17.220;2023-03-03T00:26:33;102249.38;;;-0.86;100.00
54022;BME280;39936;51.058;17.220;2023-03-03T00:30:25;102257.77;;;-0.87;100.00
54022;BME280;39936;51.058;17.220;2023-03-03T00:34:42;102260.52;;;-0.92;100.00
54022;BME280;39936;51.058;17.220;2023-03-03T00:38:35;102261.95;;;-0.94;100.00
54022;BME280;39936;51.058;17.220;2023-03-03T00:42:15;102248.04;;;-0.94;100.00
54022;BME280;39936;51.058;17.220;2023-03-03T00:46:35;102209.09;;;-1.15;100.00
54022;BME280;39936;51.058;17.220;2023-03-03T00:50:22;102203.97;;;-1.17;100.00
54022;BME280;39936;51.058;17.220;2023-03-03T00:54:03;102239.13;;;-1.01;100.00
54022;BME280;39936;51.058;17.220;2023-03-03T00:57:41;102239.95;;;-1.10;100.00
54022;BME280;39936;51.058;17.220;2023-03-03T01:05:23;102216.66;;;-1.38;100.00
54022;BME280;39936;51.058;17.220;2023-03-03T01:09:27;102230.81;;;-1.28;100.00
54022;BME280;39936;51.058;17.220;2023-03-03T01:13:08;102233.26;;;-1.28;100.00
54022;BME280;39936;51.058;17.220;2023-03-03T01:17:02;102232.31;;;-1.29;100.00
54022;BME280;39936;51.058;17.220;2023-03-03T01:20:28;102233.75;;;-1.29;100.00
54022;BME280;39936;51.058;17.220;2023-03-03T01:24:33;102230.70;;;-1.28;100.00
54022;BME280;39936;51.058;17.220;2023-03-03T01:28:33;102195.20;;;-1.49;100.00
54022;BME280;39936;51.058;17.220;2023-03-03T01:32:08;102216.90;;;-1.28;100.00
54022;BME280;39936;51.058;17.220;2023-03-03T01:39:39;102198.36;;;-1.37;100.00
54022;BME280;39936;51.058;17.220;2023-03-03T01:43:32;102203.06;;;-1.42;100.00
54022;BME280;39936;51.058;17.220;2023-03-03T01:47:51;102203.57;;;-1.44;100.00
54022;BME280;39936;51.058;17.220;2023-03-03T01:51:33;102193.20;;;-1.41;100.00
54022;BME280;39936;51.058;17.220;2023-03-03T01:54:56;102182.92;;;-1.46;100.00
54022;BME280;39936;51.058;17.220;2023-03-03T01:58:46;102163.55;;;-1.56;100.00
54022;BME280;39936;51.058;17.220;2023-03-03T02:02:05;102181.44;;;-1.40;100.00
54022;BME280;39936;51.058;17.220;2023-03-03T02:05:29;102181.29;;;-1.39;100.00
54022;BME280;39936;51.058;17.220;2023-03-03T02:13:36;102179.51;;;-1.33;100.00
54022;BME280;39936;51.058;17.220;2023-03-03T02:17:33;102174.88;;;-1.35;100.00
54022;BME280;39936;51.058;17.220;2023-03-03T02:21:51;102170.26;;;-1.42;100.00
54022;BME280;39936;51.058;17.220;2023-03-03T02:25:30;102164.05;;;-1.48;100.00
54022;BME280;39936;51.058;17.220;2023-03-03T02:29:25;102157.59;;;-1.51;100.00
54022;BME280;39936;51.058;17.220;2023-03-03T02:33:09;102160.98;;;-1.55;100.00
54022;BME280;39936;51.058;17.220;2023-03-03T02:37:13;102168.81;;;-1.45;100.00
54022;BME280;39936;51.058;17.220;2023-03-03T02:41:01;102168.84;;;-1.37;100.00
54022;BME280;39936;51.058;17.220;2023-03-03T02:44:48;102170.58;;;-1.40;100.00
54022;BME280;39936;51.058;17.220;2023-03-03T02:48:48;102171.10;;;-1.53;100.00
54022;BME280;39936;51.058;17.220;2023-03-03T02:52:29;102150.43;;;-1.74;100.00
54022;BME280;39936;51.058;17.220;2023-03-03T02:56:13;102183.81;;;-1.60;100.00
54022;BME280;39936;51.058;17.220;2023-03-03T02:59:42;102193.85;;;-1.61;100.00
54022;BME280;39936;51.058;17.220;2023-03-03T03:03:16;102201.32;;;-1.59;100.00
54022;BME280;39936;51.058;17.220;2023-03-03T03:06:37;102215.04;;;-1.58;100.00
54022;BME280;39936;51.058;17.220;2023-03-03T03:10:23;102204.59;;;-1.72;100.00
54022;BME280;39936;51.058;17.220;2023-03-03T03:13:49;102206.83;;;-1.71;100.00
54022;BME280;39936;51.058;17.220;2023-03-03T03:17:12;102204.99;;;-1.67;100.00
54022;BME280;39936;51.058;17.220;2023-03-03T03:21:18;102200.39;;;-1.69;100.00
54022;BME280;39936;51.058;17.220;2023-03-03T03:25:03;102200.80;;;-1.68;100.00
54022;BME280;39936;51.058;17.220;2023-03-03T03:28:25;102193.53;;;-1.68;100.00
54022;BME280;39936;51.058;17.220;2023-03-03T03:31:44;102184.62;;;-1.69;100.00
54022;BME280;39936;51.058;17.220;2023-03-03T03:35:17;102180.67;;;-1.69;100.00
54022;BME280;39936;51.058;17.220;2023-03-03T03:39:00;102167.84;;;-1.72;100.00
54022;BME280;39936;51.058;17.220;2023-03-03T03:42:49;102171.92;;;-1.67;100.00
54022;BME280;39936;51.058;17.220;2023-03-03T03:46:38;102170.38;;;-1.69;100.00
54022;BME280;39936;51.058;17.220;2023-03-03T03:50:06;102173.61;;;-1.72;100.00
54022;BME280;39936;51.058;17.220;2023-03-03T03:53:59;102180.18;;;-1.72;100.00
54022;BME280;39936;51.058;17.220;2023-03-03T03:57:44;102154.55;;;-1.89;100.00
54022;BME280;39936;51.058;17.220;2023-03-03T04:05:22;102189.61;;;-1.68;100.00
54022;BME280;39936;51.058;17.220;2023-03-03T04:13:12;102205.98;;;-1.62;100.00
54022;BME280;39936;51.058;17.220;2023-03-03T04:16:39;102203.40;;;-1.62;100.00
54022;BME280;39936;51.058;17.220;2023-03-03T04:25:03;102213.30;;;-1.58;100.00
54022;BME280;39936;51.058;17.220;2023-03-03T04:32:20;102222.44;;;-1.58;100.00
54022;BME280;39936;51.058;17.220;2023-03-03T04:36:17;102218.30;;;-1.65;100.00
54022;BME280;39936;51.058;17.220;2023-03-03T04:39:37;102218.90;;;-1.66;100.00
54022;BME280;39936;51.058;17.220;2023-03-03T04:43:15;102215.07;;;-1.68;100.00
54022;BME280;39936;51.058;17.220;2023-03-03T04:54:43;102233.18;;;-1.78;100.00
54022;BME280;39936;51.058;17.220;2023-03-03T04:58:20;102231.77;;;-1.77;100.00
54022;BME280;39936;51.058;17.220;2023-03-03T05:01:40;102233.41;;;-1.77;100.00
54022;BME280;39936;51.058;17.220;2023-03-03T05:05:23;102230.77;;;-1.83;100.00
54022;BME280;39936;51.058;17.220;2023-03-03T05:08:45;102211.37;;;-1.91;100.00
54022;BME280;39936;51.058;17.220;2023-03-03T05:12:47;102205.87;;;-1.98;100.00
54022;BME280;39936;51.058;17.220;2023-03-03T05:16:29;102222.48;;;-1.85;100.00
54022;BME280;39936;51.058;17.220;2023-03-03T05:20:59;102208.05;;;-1.88;100.00
54022;BME280;39936;51.058;17.220;2023-03-03T05:24:30;102214.08;;;-1.85;100.00
54022;BME280;39936;51.058;17.220;2023-03-03T05:28:46;102209.94;;;-1.84;100.00
54022;BME280;39936;51.058;17.220;2023-03-03T05:32:41;102220.98;;;-1.82;100.00
54022;BME280;39936;51.058;17.220;2023-03-03T05:40:07;102214.44;;;-1.87;100.00
54022;BME280;39936;51.058;17.220;2023-03-03T05:43:47;102182.79;;;-2.13;100.00
54022;BME280;39936;51.058;17.220;2023-03-03T05:47:26;102213.59;;;-1.94;100.00
54022;BME280;39936;51.058;17.220;2023-03-03T05:51:02;102216.01;;;-2.00;100.00
54022;BME280;39936;51.058;17.220;2023-03-03T05:54:44;102218.43;;;-2.02;100.00
54022;BME280;39936;51.058;17.220;2023-03-03T05:58:53;102213.53;;;-2.11;100.00
54022;BME280;39936;51.058;17.220;2023-03-03T06:06:40;102236.02;;;-1.99;100.00
54022;BME280;39936;51.058;17.220;2023-03-03T06:10:36;102200.81;;;-2.10;100.00
54022;BME280;39936;51.058;17.220;2023-03-03T06:14:02;102229.85;;;-1.88;100.00
54022;BME280;39936;51.058;17.220;2023-03-03T06:18:10;102230.80;;;-1.86;100.00
54022;BME280;39936;51.058;17.220;2023-03-03T06:21:47;102232.72;;;-1.88;100.00
54022;BME280;39936;51.058;17.220;2023-03-03T06:25:50;102226.73;;;-1.92;100.00
54022;BME280;39936;51.058;17.220;2023-03-03T06:29:25;102247.13;;;-1.93;100.00
54022;BME280;39936;51.058;17.220;2023-03-03T06:32:44;102257.45;;;-1.94;100.00
54022;BME280;39936;51.058;17.220;2023-03-03T06:36:20;102266.33;;;-1.93;100.00
54022;BME280;39936;51.058;17.220;2023-03-03T06:40:05;102271.85;;;-1.97;100.00
54022;BME280;39936;51.058;17.220;2023-03-03T06:43:43;102270.78;;;-2.04;100.00
54022;BME280;39936;51.058;17.220;2023-03-03T06:47:31;102255.82;;;-2.11;100.00
54022;BME280;39936;51.058;17.220;2023-03-03T06:50:53;102255.98;;;-2.11;100.00
54022;BME280;39936;51.058;17.220;2023-03-03T06:54:35;102250.45;;;-2.09;100.00
54022;BME280;39936;51.058;17.220;2023-03-03T06:57:52;102253.51;;;-2.04;100.00
54022;BME280;39936;51.058;17.220;2023-03-03T07:01:22;102256.66;;;-2.03;100.00
54022;BME280;39936;51.058;17.220;2023-03-03T07:04:55;102257.27;;;-2.00;100.00
54022;BME280;39936;51.058;17.220;2023-03-03T07:08:17;102259.53;;;-1.95;100.00
54022;BME280;39936;51.058;17.220;2023-03-03T07:12:18;102270.43;;;-1.96;100.00
54022;BME280;39936;51.058;17.220;2023-03-03T07:15:40;102278.35;;;-1.95;100.00
54022;BME280;39936;51.058;17.220;2023-03-03T07:19:01;102277.03;;;-1.97;100.00
54022;BME280;39936;51.058;17.220;2023-03-03T07:22:27;102289.44;;;-1.93;100.00
54022;BME280;39936;51.058;17.220;2023-03-03T07:26:22;102299.24;;;-1.92;100.00
54022;BME280;39936;51.058;17.220;2023-03-03T07:29:50;102307.55;;;-1.92;100.00
54022;BME280;39936;51.058;17.220;2023-03-03T07:40:38;102295.97;;;-1.87;100.00
54022;BME280;39936;51.058;17.220;2023-03-03T07:44:31;102285.36;;;-1.83;100.00
54022;BME280;39936;51.058;17.220;2023-03-03T07:51:56;102286.50;;;-1.96;100.00
54022;BME280;39936;51.058;17.220;2023-03-03T07:55:41;102284.98;;;-1.95;100.00
54022;BME280;39936;51.058;17.220;2023-03-03T08:02:52;102293.97;;;-1.96;100.00
54022;BME280;39936;51.058;17.220;2023-03-03T08:06:57;102289.09;;;-1.96;100.00
54022;BME280;39936;51.058;17.220;2023-03-03T08:10:47;102281.75;;;-1.97;100.00
54022;BME280;39936;51.058;17.220;2023-03-03T08:14:37;102289.34;;;-2.01;100.00
54022;BME280;39936;51.058;17.220;2023-03-03T08:22:34;102276.95;;;-2.10;100.00
54022;BME280;39936;51.058;17.220;2023-03-03T08:26:28;102293.10;;;-1.97;100.00
54022;BME280;39936;51.058;17.220;2023-03-03T08:30:14;102278.33;;;-2.09;100.00
54022;BME280;39936;51.058;17.220;2023-03-03T08:33:56;102282.26;;;-2.05;100.00
54022;BME280;39936;51.058;17.220;2023-03-03T08:37:35;102273.55;;;-2.18;100.00
54022;BME280;39936;51.058;17.220;2023-03-03T08:40:57;102286.20;;;-2.08;100.00
54022;BME280;39936;51.058;17.220;2023-03-03T08:44:50;102280.06;;;-2.11;100.00
54022;BME280;39936;51.058;17.220;2023-03-03T08:48:45;102293.24;;;-2.03;100.00
54022;BME280;39936;51.058;17.220;2023-03-03T08:52:08;102299.66;;;-1.94;100.00
54022;BME280;39936;51.058;17.220;2023-03-03T08:55:54;102313.70;;;-1.88;100.00
54022;BME280;39936;51.058;17.220;2023-03-03T08:59:57;102314.20;;;-1.86;100.00
54022;BME280;39936;51.058;17.220;2023-03-03T09:03:16;102309.77;;;-1.93;100.00
54022;BME280;39936;51.058;17.220;2023-03-03T09:06:59;102307.13;;;-1.88;100.00
54022;BME280;39936;51.058;17.220;2023-03-03T09:10:24;102313.74;;;-1.88;100.00
54022;BME280;39936;51.058;17.220;2023-03-03T09:14:15;102290.32;;;-2.10;100.00
54022;BME280;39936;51.058;17.220;2023-03-03T09:17:56;102319.98;;;-1.92;100.00
54022;BME280;39936;51.058;17.220;2023-03-03T09:21:30;102322.27;;;-1.90;100.00
54022;BME280;39936;51.058;17.220;2023-03-03T09:28:45;102317.51;;;-1.98;100.00
54022;BME280;39936;51.058;17.220;2023-03-03T09:32:37;102338.30;;;-1.85;100.00
54022;BME280;39936;51.058;17.220;2023-03-03T09:36:35;102337.27;;;-1.83;100.00
54022;BME280;39936;51.058;17.220;2023-03-03T09:48:10;102333.57;;;-1.80;100.00
54022;BME280;39936;51.058;17.220;2023-03-03T10:06:59;102328.84;;;-1.52;100.00
54022;BME280;39936;51.058;17.220;2023-03-03T10:21:56;102334.61;;;-1.28;100.00
54022;BME280;39936;51.058;17.220;2023-03-03T10:29:25;102333.09;;;-1.24;100.00
54022;BME280;39936;51.058;17.220;2023-03-03T10:45:20;102330.93;;;-1.24;100.00
54022;BME280;39936;51.058;17.220;2023-03-03T10:52:53;102329.02;;;-1.29;100.00
54022;BME280;39936;51.058;17.220;2023-03-03T11:00:45;102321.69;;;-1.21;100.00
54022;BME280;39936;51.058;17.220;2023-03-03T11:04:22;102319.41;;;-1.13;100.00
54022;BME280;39936;51.058;17.220;2023-03-03T11:07:54;102294.99;;;-1.13;100.00
54022;BME280;39936;51.058;17.220;2023-03-03T11:11:59;102301.45;;;-1.00;100.00
54022;BME280;39936;51.058;17.220;2023-03-03T11:42:03;102283.65;;;-0.79;100.00
54022;BME280;39936;51.058;17.220;2023-03-03T11:45:38;102268.89;;;-0.70;100.00
54022;BME280;39936;51.058;17.220;2023-03-03T12:16:31;102271.94;;;-0.43;100.00
54022;BME280;39936;51.058;17.220;2023-03-03T12:20:21;102241.80;;;-0.45;100.00
54022;BME280;39936;51.058;17.220;2023-03-03T12:35:25;102248.57;;;-0.41;100.00
54022;BME280;39936;51.058;17.220;2023-03-03T12:49:45;102254.55;;;-0.36;100.00
54022;BME280;39936;51.058;17.220;2023-03-03T12:53:21;102250.75;;;-0.28;100.00
54022;BME280;39936;51.058;17.220;2023-03-03T13:00:55;102252.02;;;-0.15;100.00
54022;BME280;39936;51.058;17.220;2023-03-03T13:05:00;102216.48;;;-0.24;100.00
54022;BME280;39936;51.058;17.220;2023-03-03T13:16:05;102253.87;;;0.03;100.00
54022;BME280;39936;51.058;17.220;2023-03-03T13:20:16;102228.48;;;-0.05;100.00
54022;BME280;39936;51.058;17.220;2023-03-03T13:58:30;102230.76;;;0.26;100.00
54022;BME280;39936;51.058;17.220;2023-03-03T14:06:28;102219.20;;;0.29;100.00
54022;BME280;39936;51.058;17.220;2023-03-03T14:10:23;102217.75;;;0.30;100.00
54022;BME280;39936;51.058;17.220;2023-03-03T14:13:54;102206.37;;;0.39;100.00
54022;BME280;39936;51.058;17.220;2023-03-03T14:25:05;102199.88;;;0.44;100.00
54022;BME280;39936;51.058;17.220;2023-03-03T14:28:36;102199.73;;;0.41;100.00
54022;BME280;39936;51.058;17.220;2023-03-03T14:32:20;102199.23;;;0.40;100.00
54022;BME280;39936;51.058;17.220;2023-03-03T14:36:01;102206.40;;;0.42;100.00
54022;BME280;39936;51.058;17.220;2023-03-03T14:39:44;102200.91;;;0.43;100.00
54022;BME280;39936;51.058;17.220;2023-03-03T14:43:56;102200.85;;;0.42;100.00
54022;BME280;39936;51.058;17.220;2023-03-03T14:48:10;102204.09;;;0.48;100.00
54022;BME280;39936;51.058;17.220;2023-03-03T14:51:42;102197.29;;;0.46;100.00
54022;BME280;39936;51.058;17.220;2023-03-03T14:55:30;102192.62;;;0.41;100.00
54022;BME280;39936;51.058;17.220;2023-03-03T14:59:20;102189.54;;;0.45;100.00
54022;BME280;39936;51.058;17.220;2023-03-03T15:02:58;102192.94;;;0.44;100.00
54022;BME280;39936;51.058;17.220;2023-03-03T15:14:35;102184.64;;;0.37;100.00
54022;BME280;39936;51.058;17.220;2023-03-03T15:18:22;102177.82;;;0.34;100.00
54022;BME280;39936;51.058;17.220;2023-03-03T15:22:03;102172.22;;;0.35;100.00
54022;BME280;39936;51.058;17.220;2023-03-03T15:29:24;102165.34;;;0.38;100.00
54022;BME280;39936;51.058;17.220;2023-03-03T15:41:07;102149.68;;;0.42;100.00
54022;BME280;39936;51.058;17.220;2023-03-03T15:56:53;102116.74;;;0.15;100.00
54022;BME280;39936;51.058;17.220;2023-03-03T16:31:33;102159.28;;;0.02;100.00
54022;BME280;39936;51.058;17.220;2023-03-03T16:35:26;102159.96;;;-0.01;100.00
54022;BME280;39936;51.058;17.220;2023-03-03T16:47:41;102147.34;;;-0.08;100.00
54022;BME280;39936;51.058;17.220;2023-03-03T17:00:19;102177.44;;;-0.01;100.00
54022;BME280;39936;51.058;17.220;2023-03-03T17:11:56;102176.34;;;-0.07;100.00
54022;BME280;39936;51.058;17.220;2023-03-03T17:19:49;102168.63;;;-0.12;100.00
54022;BME280;39936;51.058;17.220;2023-03-03T17:40:02;102186.01;;;-0.25;100.00
54022;BME280;39936;51.058;17.220;2023-03-03T17:44:01;102186.04;;;-0.31;100.00
54022;BME280;39936;51.058;17.220;2023-03-03T17:55:42;102179.55;;;-0.35;100.00
54022;BME280;39936;51.058;17.220;2023-03-03T18:20:22;102173.61;;;-0.41;100.00
54022;BME280;39936;51.058;17.220;2023-03-03T18:27:43;102174.12;;;-0.62;100.00
54022;BME280;39936;51.058;17.220;2023-03-03T18:31:03;102178.43;;;-0.64;100.00
54022;BME280;39936;51.058;17.220;2023-03-03T18:34:41;102179.66;;;-0.69;100.00
54022;BME280;39936;51.058;17.220;2023-03-03T18:42:10;102167.33;;;-0.70;100.00
54022;BME280;39936;51.058;17.220;2023-03-03T18:50:52;102173.78;;;-0.63;100.00
54022;BME280;39936;51.058;17.220;2023-03-03T18:54:37;102167.39;;;-0.71;100.00
54022;BME280;39936;51.058;17.220;2023-03-03T19:02:53;102188.30;;;-0.73;100.00
54022;BME280;39936;51.058;17.220;2023-03-03T19:21:36;102192.57;;;-0.82;100.00
54022;BME280;39936;51.058;17.220;2023-03-03T19:39:41;102195.84;;;-0.81;100.00
54022;BME280;39936;51.058;17.220;2023-03-03T19:51:00;102186.72;;;-0.98;100.00
54022;BME280;39936;51.058;17.220;2023-03-03T19:58:00;102191.35;;;-0.99;100.00
54022;BME280;39936;51.058;17.220;2023-03-03T20:14:19;102170.19;;;-0.86;100.00
54022;BME280;39936;51.058;17.220;2023-03-03T20:33:16;102172.71;;;-0.88;100.00
54022;BME280;39936;51.058;17.220;2023-03-03T20:37:38;102169.51;;;-0.92;100.00
54022;BME280;39936;51.058;17.220;2023-03-03T20:57:06;102158.83;;;-1.03;100.00
54022;BME280;39936;51.058;17.220;2023-03-03T21:04:44;102155.37;;;-1.03;100.00
54022;BME280;39936;51.058;17.220;2023-03-03T21:12:29;102155.85;;;-1.18;100.00
54022;BME280;39936;51.058;17.220;2023-03-03T21:24:10;102142.91;;;-1.27;100.00
54022;BME280;39936;51.058;17.220;2023-03-03T21:31:55;102135.52;;;-1.29;100.00
54022;BME280;39936;51.058;17.220;2023-03-03T21:43:44;102119.52;;;-1.27;100.00
54022;BME280;39936;51.058;17.220;2023-03-03T21:47:52;102114.42;;;-1.27;100.00
54022;BME280;39936;51.058;17.220;2023-03-03T21:51:39;102102.16;;;-1.24;100.00
54022;BME280;39936;51.058;17.220;2023-03-03T21:56:12;102097.28;;;-1.24;100.00
54022;BME280;39936;51.058;17.220;2023-03-03T22:00:25;102096.09;;;-1.23;100.00
54022;BME280;39936;51.058;17.220;2023-03-03T22:04:06;102095.84;;;-1.21;100.00
54022;BME280;39936;51.058;17.220;2023-03-03T22:07:45;102094.05;;;-1.16;100.00
54022;BME280;39936;51.058;17.220;2023-03-03T22:11:28;102082.37;;;-1.19;100.00
54022;BME280;39936;51.058;17.220;2023-03-03T22:15:30;102069.36;;;-1.26;100.00
54022;BME280;39936;51.058;17.220;2023-03-03T22:19:12;102079.95;;;-1.25;100.00
54022;BME280;39936;51.058;17.220;2023-03-03T22:22:39;102069.11;;;-1.31;100.00
54022;BME280;39936;51.058;17.220;2023-03-03T22:26:19;102070.90;;;-1.28;100.00
54022;BME280;39936;51.058;17.220;2023-03-03T22:30:12;102049.54;;;-1.45;100.00
54022;BME280;39936;51.058;17.220;2023-03-03T22:37:43;102057.91;;;-1.31;100.00
54022;BME280;39936;51.058;17.220;2023-03-03T22:41:31;102055.06;;;-1.30;100.00
54022;BME280;39936;51.058;17.220;2023-03-03T22:45:10;102014.89;;;-1.57;100.00
54022;BME280;39936;51.058;17.220;2023-03-03T22:48:33;102051.49;;;-1.32;100.00
54022;BME280;39936;51.058;17.220;2023-03-03T22:52:26;102046.78;;;-1.31;100.00
54022;BME280;39936;51.058;17.220;2023-03-03T22:55:55;102041.59;;;-1.30;100.00
54022;BME280;39936;51.058;17.220;2023-03-03T22:59:20;102034.79;;;-1.29;100.00
54022;BME280;39936;51.058;17.220;2023-03-03T23:03:40;102032.96;;;-1.28;100.00
54022;BME280;39936;51.058;17.220;2023-03-03T23:07:05;102038.60;;;-1.22;100.00
54022;BME280;39936;51.058;17.220;2023-03-03T23:11:25;102030.92;;;-1.21;100.00
54022;BME280;39936;51.058;17.220;2023-03-03T23:15:23;102000.70;;;-1.36;100.00
54022;BME280;39936;51.058;17.220;2023-03-03T23:18:47;102023.27;;;-1.19;100.00
54022;BME280;39936;51.058;17.220;2023-03-03T23:26:25;102020.66;;;-1.16;100.00
54022;BME280;39936;51.058;17.220;2023-03-03T23:30:13;102015.63;;;-1.14;100.00
54022;BME280;39936;51.058;17.220;2023-03-03T23:34:02;102018.97;;;-1.13;100.00
54022;BME280;39936;51.058;17.220;2023-03-03T23:37:56;102007.89;;;-1.14;100.00
54022;BME280;39936;51.058;17.220;2023-03-03T23:41:40;101998.27;;;-1.11;100.00
54022;BME280;39936;51.058;17.220;2023-03-03T23:45:34;101995.10;;;-1.10;100.00
54022;BME280;39936;51.058;17.220;2023-03-03T23:49:30;101961.57;;;-1.26;100.00
54022;BME280;39936;51.058;17.220;2023-03-03T23:52:49;101967.99;;;-1.10;100.00
54022;BME280;39936;51.058;17.220;2023-03-03T23:56:33;101967.54;;;-1.05;100.00
54022;BME280;39936;51.058;17.220;2023-03-03T23:59:59;101960.75;;;-1.03;100.00
